createdAt,value
2024-02-19T00:05:14.412Z,85.62
2024-02-19T00:10:54.578Z,85.91
2024-02-19T00:16:35.269Z,86.15
2024-02-19T00:22:15.191Z,86.15
2024-02-19T00:27:56.533Z,86.14
2024-02-19T00:33:36.891Z,86.14
2024-02-19T00:39:17.282Z,86.19
2024-02-19T00:44:57.462Z,86.56
2024-02-19T00:50:37.618Z,86.46
2024-02-19T00:56:17.828Z,86.46
2024-02-19T01:05:18.726Z,87.31
2024-02-19T01:10:58.994Z,86.83
2024-02-19T01:16:41.146Z,87.19
2024-02-19T01:22:21.239Z,86.97
2024-02-19T01:28:02.016Z,87.49
2024-02-19T01:33:42.045Z,87.97
2024-02-19T01:39:22.403Z,88.58
2024-02-19T01:45:04.108Z,88.84
2024-02-19T01:50:48.181Z,89.31
2024-02-19T01:56:28.632Z,89.70
2024-02-19T02:02:09.853Z,90.22
2024-02-19T02:07:50.073Z,90.41
2024-02-19T02:13:30.000Z,90.74
2024-02-19T02:19:14.232Z,90.75
2024-02-19T02:24:54.550Z,90.74
2024-02-19T02:30:34.729Z,90.74
2024-02-19T02:36:14.980Z,90.77
2024-02-19T02:41:54.943Z,90.88
2024-02-19T02:47:35.573Z,90.89
2024-02-19T02:53:15.883Z,89.88
2024-02-19T02:58:56.616Z,89.88
2024-02-19T03:04:37.192Z,89.90
2024-02-19T03:10:18.494Z,89.49
2024-02-19T03:15:59.054Z,88.92
2024-02-19T03:21:41.785Z,88.62
2024-02-19T03:27:23.211Z,88.33
2024-02-19T03:33:04.464Z,88.57
2024-02-19T03:38:44.952Z,88.82
2024-02-19T03:44:27.529Z,89.37
2024-02-19T03:50:08.082Z,89.81
2024-02-19T03:55:48.352Z,89.98
2024-02-19T04:05:22.488Z,90.64
2024-02-19T06:05:27.405Z,95.40
2024-02-19T06:11:08.069Z,94.86
2024-02-19T06:16:48.730Z,94.71
2024-02-19T06:22:29.034Z,94.65
2024-02-19T06:28:09.494Z,94.51
2024-02-19T06:33:49.950Z,93.89
2024-02-19T06:39:30.751Z,93.31
2024-02-19T06:45:11.286Z,92.80
2024-02-19T06:50:51.832Z,92.28
2024-02-19T06:56:32.137Z,91.72
2024-02-19T07:02:12.652Z,91.54
2024-02-19T07:07:54.283Z,90.93
2024-02-19T07:13:34.900Z,90.58
2024-02-19T07:19:15.485Z,88.91
2024-02-19T07:25:05.738Z,88.37
2024-02-19T07:30:39.618Z,87.09
2024-02-19T07:36:20.095Z,86.18
2024-02-19T07:42:00.871Z,85.57
2024-02-19T07:47:41.928Z,84.12
2024-02-19T07:53:23.588Z,84.24
2024-02-19T07:59:04.238Z,83.51
2024-02-19T08:04:44.718Z,82.24
2024-02-19T08:10:25.543Z,81.45
2024-02-19T08:16:06.622Z,80.96
2024-02-19T08:21:49.071Z,78.84
2024-02-19T08:27:29.286Z,78.35
2024-02-19T08:33:09.650Z,77.84
2024-02-19T08:38:53.117Z,77.36
2024-02-19T08:44:33.825Z,76.60
2024-02-19T08:50:14.535Z,75.05
2024-02-19T08:55:55.433Z,72.99
2024-02-19T09:01:36.138Z,71.67
2024-02-19T09:07:16.576Z,71.03
2024-02-19T09:12:57.568Z,69.68
2024-02-19T09:18:38.952Z,67.42
2024-02-19T09:24:20.438Z,66.67
2024-02-19T09:30:00.773Z,65.75
2024-02-19T09:35:40.893Z,65.50
2024-02-19T09:41:21.584Z,65.12
2024-02-19T09:47:05.108Z,61.95
2024-02-19T09:52:46.163Z,61.06
2024-02-19T09:58:27.850Z,59.44
2024-02-19T10:05:27.221Z,57.08
2024-02-19T10:11:11.507Z,54.97
2024-02-19T10:16:53.178Z,53.42
2024-02-19T10:22:33.884Z,53.77
2024-02-19T10:28:14.160Z,53.61
2024-02-19T10:33:55.043Z,52.48
2024-02-19T10:39:35.927Z,51.58
2024-02-19T10:45:18.438Z,51.25
2024-02-19T10:50:59.362Z,51.36
2024-02-19T10:56:43.821Z,50.88
2024-02-19T11:02:25.797Z,50.00
2024-02-19T11:08:07.903Z,49.84
2024-02-19T11:13:48.914Z,49.87
2024-02-19T11:19:30.661Z,49.88
2024-02-19T11:25:11.543Z,49.53
2024-02-19T11:31:02.035Z,49.35
2024-02-19T11:36:43.510Z,48.66
2024-02-19T11:42:24.577Z,48.30
2024-02-19T11:48:06.257Z,48.50
2024-02-19T11:53:46.605Z,49.21
2024-02-19T11:59:27.494Z,49.60
2024-02-19T12:05:07.929Z,50.29
2024-02-19T12:10:47.995Z,50.68
2024-02-19T12:16:29.012Z,50.73
2024-02-19T12:22:09.429Z,50.62
2024-02-19T12:27:49.444Z,50.37
2024-02-19T12:33:29.560Z,50.44
2024-02-19T12:39:11.225Z,50.91
2024-02-19T12:44:52.260Z,51.21
2024-02-19T12:50:33.571Z,51.07
2024-02-19T12:56:14.133Z,51.42
2024-02-19T13:05:21.762Z,51.81
2024-02-19T13:11:02.399Z,52.04
2024-02-19T13:16:44.733Z,52.71
2024-02-19T13:22:26.710Z,52.65
2024-02-19T13:28:08.628Z,52.09
2024-02-19T13:33:48.491Z,52.39
2024-02-19T13:39:29.140Z,52.15
2024-02-19T13:45:10.673Z,52.57
2024-02-19T13:50:56.095Z,52.58
2024-02-19T13:56:37.127Z,52.42
2024-02-19T14:02:17.640Z,53.16
2024-02-19T14:07:57.995Z,54.08
2024-02-19T14:13:46.532Z,54.85
2024-02-19T14:19:20.414Z,55.00
2024-02-19T14:25:00.850Z,54.78
2024-02-19T14:30:41.349Z,54.45
2024-02-19T14:36:22.706Z,54.42
2024-02-19T14:42:02.808Z,55.64
2024-02-19T14:47:45.724Z,57.21
2024-02-19T14:53:25.569Z,58.11
2024-02-19T14:59:06.226Z,58.83
2024-02-19T15:04:46.863Z,59.86
2024-02-19T15:10:27.311Z,61.20
2024-02-19T15:16:07.976Z,62.27
2024-02-19T15:21:48.146Z,62.78
2024-02-19T15:27:28.234Z,62.97
2024-02-19T15:33:08.489Z,63.63
2024-02-19T15:38:50.934Z,64.14
2024-02-19T15:44:31.986Z,64.73
2024-02-19T15:50:12.669Z,65.62
2024-02-19T15:55:56.483Z,66.78
2024-02-19T16:05:30.547Z,67.60
2024-02-19T16:11:11.407Z,68.16
2024-02-19T16:16:51.945Z,68.70
2024-02-19T16:22:32.971Z,69.33
2024-02-19T16:28:15.421Z,70.06
2024-02-19T16:33:55.677Z,70.82
2024-02-19T16:39:35.615Z,71.44
2024-02-19T16:45:15.897Z,72.35
2024-02-19T16:50:57.813Z,73.36
2024-02-19T16:56:37.868Z,74.12
2024-02-19T17:02:17.860Z,74.40
2024-02-19T17:07:57.654Z,74.56
2024-02-19T17:13:38.153Z,74.79
2024-02-19T17:19:19.912Z,75.39
2024-02-19T17:25:00.533Z,75.78
2024-02-19T17:30:42.708Z,76.31
2024-02-19T17:36:24.116Z,76.95
2024-02-19T17:42:04.712Z,77.71
2024-02-19T17:47:47.310Z,78.46
2024-02-19T17:53:27.769Z,79.49
2024-02-19T17:59:12.539Z,80.08
2024-02-19T18:04:56.228Z,80.54
2024-02-19T18:10:36.292Z,81.69
2024-02-19T18:16:16.966Z,82.80
2024-02-19T18:21:58.885Z,83.96
2024-02-19T18:27:39.342Z,84.25
2024-02-19T18:33:21.251Z,84.97
2024-02-19T18:39:01.779Z,85.84
2024-02-19T18:44:42.298Z,86.29
2024-02-19T18:50:23.759Z,86.65
2024-02-19T18:56:04.389Z,87.29
2024-02-19T19:05:19.119Z,88.08
2024-02-19T19:10:59.512Z,88.09
2024-02-19T19:16:39.543Z,88.37
2024-02-19T19:22:20.576Z,88.72
2024-02-19T19:28:00.943Z,88.83
2024-02-19T19:33:41.144Z,89.11
2024-02-19T19:39:21.939Z,89.24
2024-02-19T19:45:02.563Z,89.57
2024-02-19T19:50:42.810Z,89.86
2024-02-19T19:56:24.390Z,89.87
2024-02-19T20:02:04.667Z,90.16
2024-02-19T20:07:45.001Z,90.40
2024-02-19T20:13:25.383Z,90.70
2024-02-19T20:19:05.875Z,90.97
2024-02-19T20:24:46.600Z,91.21
2024-02-19T20:30:26.939Z,91.59
2024-02-19T20:36:08.170Z,92.05
2024-02-19T20:41:50.414Z,92.51
2024-02-19T20:47:30.810Z,93.12
2024-02-19T20:53:12.990Z,93.47
2024-02-19T20:58:53.575Z,93.81
2024-02-19T21:04:35.348Z,94.12
2024-02-19T21:10:16.231Z,94.62
2024-02-19T21:15:57.575Z,95.06
2024-02-19T21:21:38.453Z,95.37
2024-02-19T21:27:18.534Z,95.84
2024-02-19T21:32:58.915Z,95.99
2024-02-19T21:38:20.968Z,95.97
2024-02-19T21:43:46.179Z,96.40
2024-02-19T21:49:28.490Z,96.95
2024-02-19T21:55:09.430Z,97.00
2024-02-19T22:05:19.413Z,97.86
2024-02-19T22:10:59.602Z,98.01
2024-02-19T22:16:40.319Z,98.24
2024-02-19T22:22:20.492Z,98.40
2024-02-19T22:27:45.344Z,98.40
2024-02-19T22:33:07.664Z,98.35
2024-02-19T22:38:29.671Z,98.87
2024-02-19T22:44:10.047Z,99.11
2024-02-19T22:49:50.423Z,99.25
2024-02-19T22:55:30.742Z,99.68
2024-02-19T23:01:12.111Z,99.87
2024-02-19T23:06:52.906Z,100.00
2024-02-19T23:12:14.847Z,100.00
2024-02-19T23:17:55.120Z,100.00
2024-02-19T23:23:17.044Z,100.00
2024-02-19T23:28:57.862Z,100.00
2024-02-19T23:34:37.977Z,100.00
2024-02-19T23:40:00.959Z,100.00
2024-02-19T23:45:41.436Z,100.00
2024-02-19T23:51:21.694Z,100.00
2024-02-19T23:57:01.909Z,100.00
